sensor_id;sensor_type;location;lat;lon;timestamp;pressure;altitude;pressure_sealevel;temperature;humidity
45345;BME280;31078;48.304;11.896;2022-07-23T00:00:16;96274.94;;;23.89;59.46
45345;BME280;31078;48.304;11.896;2022-07-23T00:02:42;96261.03;;;23.89;61.05
45345;BME280;31078;48.304;11.896;2022-07-23T00:05:09;96260.66;;;23.87;61.60
45345;BME280;31078;48.304;11.896;2022-07-23T00:07:37;96251.13;;;23.88;61.28
45345;BME280;31078;48.304;11.896;2022-07-23T00:10:05;96240.75;;;23.92;61.09
45345;BME280;31078;48.304;11.896;2022-07-23T00:12:32;96238.44;;;23.80;60.57
45345;BME280;31078;48.304;11.896;2022-07-23T00:14:59;96237.22;;;23.84;61.00
45345;BME280;31078;48.304;11.896;2022-07-23T00:17:25;96235.19;;;23.92;60.42
45345;BME280;31078;48.304;11.896;2022-07-23T00:19:52;96224.44;;;23.94;60.66
45345;BME280;31078;48.304;11.896;2022-07-23T00:22:19;96224.44;;;23.98;59.53
45345;BME280;31078;48.304;11.896;2022-07-23T00:24:47;96223.25;;;23.95;58.17
45345;BME280;31078;48.304;11.896;2022-07-23T00:27:14;96228.88;;;23.84;58.52
45345;BME280;31078;48.304;11.896;2022-07-23T00:29:40;96235.66;;;23.83;57.98
45345;BME280;31078;48.304;11.896;2022-07-23T00:32:06;96245.38;;;23.43;59.08
45345;BME280;31078;48.304;11.896;2022-07-23T00:34:33;96243.06;;;23.34;57.83
45345;BME280;31078;48.304;11.896;2022-07-23T00:36:59;96240.19;;;23.49;58.20
45345;BME280;31078;48.304;11.896;2022-07-23T00:39:26;96244.50;;;23.60;59.33
45345;BME280;31078;48.304;11.896;2022-07-23T00:41:54;96250.97;;;23.36;57.89
45345;BME280;31078;48.304;11.896;2022-07-23T00:44:22;96237.47;;;23.38;58.42
45345;BME280;31078;48.304;11.896;2022-07-23T00:46:50;96243.78;;;23.46;56.35
45345;BME280;31078;48.304;11.896;2022-07-23T00:49:18;96242.09;;;23.62;56.33
45345;BME280;31078;48.304;11.896;2022-07-23T00:51:44;96231.00;;;23.66;55.79
45345;BME280;31078;48.304;11.896;2022-07-23T00:54:11;96227.78;;;23.71;55.08
45345;BME280;31078;48.304;11.896;2022-07-23T00:56:38;96231.31;;;23.79;55.92
45345;BME280;31078;48.304;11.896;2022-07-23T00:59:07;96231.78;;;23.70;56.44
45345;BME280;31078;48.304;11.896;2022-07-23T01:01:33;96222.28;;;23.53;57.39
45345;BME280;31078;48.304;11.896;2022-07-23T01:04:00;96234.25;;;23.50;56.01
45345;BME280;31078;48.304;11.896;2022-07-23T01:06:26;96241.75;;;23.53;56.65
45345;BME280;31078;48.304;11.896;2022-07-23T01:08:53;96266.81;;;23.42;56.60
45345;BME280;31078;48.304;11.896;2022-07-23T01:57:25;96425.63;;;22.70;52.48
45345;BME280;31078;48.304;11.896;2022-07-23T02:05:02;96456.94;;;22.52;54.14
45345;BME280;31078;48.304;11.896;2022-07-23T02:10:04;96436.69;;;22.48;55.07
45345;BME280;31078;48.304;11.896;2022-07-23T02:12:33;96420.44;;;22.43;54.65
45345;BME280;31078;48.304;11.896;2022-07-23T02:17:35;96409.94;;;21.83;56.70
45345;BME280;31078;48.304;11.896;2022-07-23T02:22:37;96424.38;;;21.41;61.01
45345;BME280;31078;48.304;11.896;2022-07-23T02:27:41;96425.38;;;20.67;65.66
45345;BME280;31078;48.304;11.896;2022-07-23T02:41:20;96460.00;;;19.03;77.06
45345;BME280;31078;48.304;11.896;2022-07-23T03:28:10;96389.22;;;18.19;92.35
45345;BME280;31078;48.304;11.896;2022-07-23T03:30:37;96381.06;;;18.26;92.78
45345;BME280;31078;48.304;11.896;2022-07-23T03:41:20;96387.81;;;18.51;87.56
45345;BME280;31078;48.304;11.896;2022-07-23T05:00:13;96316.31;;;19.19;82.93
45345;BME280;31078;48.304;11.896;2022-07-23T05:02:40;96325.19;;;19.35;82.26
45345;BME280;31078;48.304;11.896;2022-07-23T05:23:14;96327.16;;;19.65;80.29
45345;BME280;31078;48.304;11.896;2022-07-23T05:25:43;96326.53;;;19.78;81.23
45345;BME280;31078;48.304;11.896;2022-07-23T05:28:10;96325.81;;;19.85;82.42
45345;BME280;31078;48.304;11.896;2022-07-23T05:30:37;96323.44;;;19.87;82.30
45345;BME280;31078;48.304;11.896;2022-07-23T05:33:04;96325.13;;;19.95;83.00
45345;BME280;31078;48.304;11.896;2022-07-23T05:35:32;96321.19;;;19.96;83.15
45345;BME280;31078;48.304;11.896;2022-07-23T05:37:58;96328.72;;;19.99;83.48
45345;BME280;31078;48.304;11.896;2022-07-23T05:40:27;96329.13;;;20.01;83.42
45345;BME280;31078;48.304;11.896;2022-07-23T05:42:54;96329.06;;;19.94;81.20
45345;BME280;31078;48.304;11.896;2022-07-23T05:45:37;96337.03;;;19.99;82.24
45345;BME280;31078;48.304;11.896;2022-07-23T05:48:04;96340.19;;;20.01;79.61
45345;BME280;31078;48.304;11.896;2022-07-23T05:50:31;96342.59;;;20.06;79.91
45345;BME280;31078;48.304;11.896;2022-07-23T05:52:58;96333.88;;;20.04;78.40
45345;BME280;31078;48.304;11.896;2022-07-23T05:55:28;96331.22;;;20.12;77.38
45345;BME280;31078;48.304;11.896;2022-07-23T05:57:57;96333.97;;;20.12;78.09
45345;BME280;31078;48.304;11.896;2022-07-23T06:02:59;96346.66;;;20.16;77.69
45345;BME280;31078;48.304;11.896;2022-07-23T06:05:26;96348.28;;;20.21;76.04
45345;BME280;31078;48.304;11.896;2022-07-23T06:07:53;96356.22;;;20.26;76.99
45345;BME280;31078;48.304;11.896;2022-07-23T06:10:20;96368.78;;;20.20;75.96
45345;BME280;31078;48.304;11.896;2022-07-23T06:12:49;96366.41;;;20.18;75.87
45345;BME280;31078;48.304;11.896;2022-07-23T06:15:29;96363.25;;;20.20;76.30
45345;BME280;31078;48.304;11.896;2022-07-23T06:20:21;96365.75;;;20.32;78.17
45345;BME280;31078;48.304;11.896;2022-07-23T06:22:48;96371.28;;;20.32;78.17
45345;BME280;31078;48.304;11.896;2022-07-23T06:27:46;96374.13;;;20.39;79.26
45345;BME280;31078;48.304;11.896;2022-07-23T06:30:14;96375.75;;;20.44;79.07
45345;BME280;31078;48.304;11.896;2022-07-23T06:32:42;96372.56;;;20.42;77.75
45345;BME280;31078;48.304;11.896;2022-07-23T06:35:09;96368.19;;;20.41;77.92
45345;BME280;31078;48.304;11.896;2022-07-23T06:37:35;96356.38;;;20.44;77.35
45345;BME280;31078;48.304;11.896;2022-07-23T06:40:02;96358.03;;;20.48;78.26
45345;BME280;31078;48.304;11.896;2022-07-23T06:42:29;96348.56;;;20.49;77.12
45345;BME280;31078;48.304;11.896;2022-07-23T06:44:55;96355.31;;;20.55;76.62
45345;BME280;31078;48.304;11.896;2022-07-23T06:47:23;96353.38;;;20.59;77.22
45345;BME280;31078;48.304;11.896;2022-07-23T06:49:50;96356.19;;;20.63;77.29
45345;BME280;31078;48.304;11.896;2022-07-23T06:52:16;96349.50;;;20.68;78.29
45345;BME280;31078;48.304;11.896;2022-07-23T06:54:43;96348.69;;;20.64;77.55
45345;BME280;31078;48.304;11.896;2022-07-23T06:57:10;96349.44;;;20.61;78.42
45345;BME280;31078;48.304;11.896;2022-07-23T06:59:36;96346.41;;;20.80;78.56
45345;BME280;31078;48.304;11.896;2022-07-23T07:02:05;96348.78;;;20.78;76.81
45345;BME280;31078;48.304;11.896;2022-07-23T07:04:34;96340.94;;;20.87;77.49
45345;BME280;31078;48.304;11.896;2022-07-23T07:07:02;96343.41;;;20.99;77.51
45345;BME280;31078;48.304;11.896;2022-07-23T07:09:29;96335.94;;;21.10;77.33
45345;BME280;31078;48.304;11.896;2022-07-23T07:11:55;96383.78;;;21.07;74.55
45345;BME280;31078;48.304;11.896;2022-07-23T07:14:22;96409.75;;;20.92;73.79
45345;BME280;31078;48.304;11.896;2022-07-23T07:16:49;96420.63;;;20.67;74.89
45345;BME280;31078;48.304;11.896;2022-07-23T07:19:15;96411.25;;;20.82;74.51
45345;BME280;31078;48.304;11.896;2022-07-23T07:21:43;96404.22;;;20.89;73.15
45345;BME280;31078;48.304;11.896;2022-07-23T07:24:10;96410.28;;;21.05;73.13
45345;BME280;31078;48.304;11.896;2022-07-23T07:26:36;96404.31;;;20.99;73.05
45345;BME280;31078;48.304;11.896;2022-07-23T07:29:03;96406.00;;;21.15;75.03
45345;BME280;31078;48.304;11.896;2022-07-23T07:31:30;96402.84;;;21.20;73.01
45345;BME280;31078;48.304;11.896;2022-07-23T07:33:57;96409.28;;;21.31;73.51
45345;BME280;31078;48.304;11.896;2022-07-23T07:36:24;96403.28;;;21.29;71.17
45345;BME280;31078;48.304;11.896;2022-07-23T07:38:52;96395.50;;;21.45;71.34
45345;BME280;31078;48.304;11.896;2022-07-23T07:41:18;96399.09;;;21.49;69.74
45345;BME280;31078;48.304;11.896;2022-07-23T07:43:49;96405.50;;;21.64;70.81
45345;BME280;31078;48.304;11.896;2022-07-23T07:46:15;96402.38;;;21.73;71.21
45345;BME280;31078;48.304;11.896;2022-07-23T07:48:42;96405.97;;;21.84;68.95
45345;BME280;31078;48.304;11.896;2022-07-23T07:51:08;96400.81;;;21.86;68.75
45345;BME280;31078;48.304;11.896;2022-07-23T07:53:35;96406.41;;;21.89;69.19
45345;BME280;31078;48.304;11.896;2022-07-23T07:56:03;96414.75;;;21.93;68.23
45345;BME280;31078;48.304;11.896;2022-07-23T07:58:30;96415.94;;;21.99;68.50
45345;BME280;31078;48.304;11.896;2022-07-23T08:00:56;96428.63;;;22.00;69.41
45345;BME280;31078;48.304;11.896;2022-07-23T08:03:23;96432.19;;;22.04;70.17
45345;BME280;31078;48.304;11.896;2022-07-23T08:05:49;96430.22;;;22.05;71.29
45345;BME280;31078;48.304;11.896;2022-07-23T08:08:16;96429.38;;;21.97;72.69
45345;BME280;31078;48.304;11.896;2022-07-23T08:10:42;96435.72;;;21.94;72.51
45345;BME280;31078;48.304;11.896;2022-07-23T08:13:12;96455.94;;;21.98;72.29
45345;BME280;31078;48.304;11.896;2022-07-23T08:15:39;96460.31;;;21.99;72.08
45345;BME280;31078;48.304;11.896;2022-07-23T08:18:05;96461.06;;;21.93;72.26
45345;BME280;31078;48.304;11.896;2022-07-23T08:20:32;96462.66;;;21.94;72.46
45345;BME280;31078;48.304;11.896;2022-07-23T08:23:00;96453.13;;;21.87;73.20
45345;BME280;31078;48.304;11.896;2022-07-23T08:25:30;96461.03;;;21.89;73.08
45345;BME280;31078;48.304;11.896;2022-07-23T08:27:57;96468.09;;;21.76;71.33
45345;BME280;31078;48.304;11.896;2022-07-23T08:30:25;96474.81;;;21.75;73.95
45345;BME280;31078;48.304;11.896;2022-07-23T08:32:54;96468.41;;;21.56;73.09
45345;BME280;31078;48.304;11.896;2022-07-23T08:35:23;96477.44;;;21.46;72.28
45345;BME280;31078;48.304;11.896;2022-07-23T08:37:50;96470.28;;;21.45;73.44
45345;BME280;31078;48.304;11.896;2022-07-23T08:40:17;96465.19;;;21.47;73.16
45345;BME280;31078;48.304;11.896;2022-07-23T08:42:44;96456.00;;;21.40;74.46
45345;BME280;31078;48.304;11.896;2022-07-23T08:45:16;96452.00;;;21.30;76.93
45345;BME280;31078;48.304;11.896;2022-07-23T08:47:44;96463.88;;;21.34;76.46
45345;BME280;31078;48.304;11.896;2022-07-23T08:50:11;96474.56;;;21.32;76.26
45345;BME280;31078;48.304;11.896;2022-07-23T08:52:38;96469.81;;;21.32;76.92
45345;BME280;31078;48.304;11.896;2022-07-23T08:55:07;96482.03;;;21.28;76.36
45345;BME280;31078;48.304;11.896;2022-07-23T08:57:34;96487.16;;;21.26;77.71
45345;BME280;31078;48.304;11.896;2022-07-23T09:00:00;96493.78;;;21.14;77.33
45345;BME280;31078;48.304;11.896;2022-07-23T09:02:27;96483.53;;;21.15;79.81
45345;BME280;31078;48.304;11.896;2022-07-23T09:04:55;96480.78;;;21.22;80.65
45345;BME280;31078;48.304;11.896;2022-07-23T09:07:22;96488.81;;;21.34;79.70
45345;BME280;31078;48.304;11.896;2022-07-23T09:10:04;96473.41;;;21.36;79.41
45345;BME280;31078;48.304;11.896;2022-07-23T09:12:31;96477.38;;;21.39;78.47
45345;BME280;31078;48.304;11.896;2022-07-23T09:15:04;96481.72;;;21.40;77.73
45345;BME280;31078;48.304;11.896;2022-07-23T09:17:37;96493.16;;;21.31;77.52
45345;BME280;31078;48.304;11.896;2022-07-23T09:20:10;96502.13;;;21.18;81.06
45345;BME280;31078;48.304;11.896;2022-07-23T09:22:38;96513.63;;;21.20;80.09
45345;BME280;31078;48.304;11.896;2022-07-23T09:25:10;96523.78;;;21.08;81.38
45345;BME280;31078;48.304;11.896;2022-07-23T09:27:54;96518.06;;;20.87;82.70
45345;BME280;31078;48.304;11.896;2022-07-23T09:30:22;96525.16;;;20.84;83.06
45345;BME280;31078;48.304;11.896;2022-07-23T09:33:10;96513.56;;;20.72;80.96
45345;BME280;31078;48.304;11.896;2022-07-23T09:35:45;96514.50;;;20.83;79.00
45345;BME280;31078;48.304;11.896;2022-07-23T09:38:12;96512.63;;;20.94;77.87
45345;BME280;31078;48.304;11.896;2022-07-23T09:40:38;96506.28;;;20.97;78.05
45345;BME280;31078;48.304;11.896;2022-07-23T09:43:05;96499.56;;;20.98;78.49
45345;BME280;31078;48.304;11.896;2022-07-23T09:45:31;96512.00;;;21.19;78.17
45345;BME280;31078;48.304;11.896;2022-07-23T09:48:10;96504.13;;;21.21;77.22
45345;BME280;31078;48.304;11.896;2022-07-23T09:50:36;96521.50;;;21.18;79.72
45345;BME280;31078;48.304;11.896;2022-07-23T09:53:04;96520.16;;;21.45;77.45
45345;BME280;31078;48.304;11.896;2022-07-23T09:55:33;96519.03;;;21.53;76.41
45345;BME280;31078;48.304;11.896;2022-07-23T09:58:02;96537.03;;;21.81;75.95
45345;BME280;31078;48.304;11.896;2022-07-23T10:00:29;96533.28;;;22.10;75.58
45345;BME280;31078;48.304;11.896;2022-07-23T10:02:57;96516.69;;;22.28;73.54
45345;BME280;31078;48.304;11.896;2022-07-23T10:05:25;96512.03;;;22.50;72.22
45345;BME280;31078;48.304;11.896;2022-07-23T10:07:52;96508.91;;;22.66;73.66
45345;BME280;31078;48.304;11.896;2022-07-23T10:10:22;96507.00;;;22.88;70.32
45345;BME280;31078;48.304;11.896;2022-07-23T10:12:53;96503.81;;;23.04;70.57
45345;BME280;31078;48.304;11.896;2022-07-23T10:15:36;96505.00;;;23.53;73.31
45345;BME280;31078;48.304;11.896;2022-07-23T10:18:03;96498.63;;;23.88;64.65
45345;BME280;31078;48.304;11.896;2022-07-23T10:20:30;96495.31;;;24.21;65.85
45345;BME280;31078;48.304;11.896;2022-07-23T10:23:12;96488.09;;;24.45;65.30
45345;BME280;31078;48.304;11.896;2022-07-23T10:25:54;96484.69;;;24.83;61.82
45345;BME280;31078;48.304;11.896;2022-07-23T10:31:28;96485.59;;;25.24;59.99
45345;BME280;31078;48.304;11.896;2022-07-23T10:34:05;96482.59;;;25.46;62.23
45345;BME280;31078;48.304;11.896;2022-07-23T10:36:42;96486.59;;;25.45;60.48
45345;BME280;31078;48.304;11.896;2022-07-23T10:39:17;96477.78;;;25.54;61.92
45345;BME280;31078;48.304;11.896;2022-07-23T10:41:46;96485.72;;;25.55;58.31
45345;BME280;31078;48.304;11.896;2022-07-23T10:44:14;96474.72;;;25.79;57.16
45345;BME280;31078;48.304;11.896;2022-07-23T10:46:54;96460.59;;;25.96;59.85
45345;BME280;31078;48.304;11.896;2022-07-23T10:49:31;96465.09;;;26.21;60.38
45345;BME280;31078;48.304;11.896;2022-07-23T10:52:18;96460.38;;;26.14;58.59
45345;BME280;31078;48.304;11.896;2022-07-23T10:54:46;96452.66;;;26.25;58.18
45345;BME280;31078;48.304;11.896;2022-07-23T10:57:16;96440.03;;;26.48;58.01
45345;BME280;31078;48.304;11.896;2022-07-23T11:00:15;96450.47;;;26.44;53.94
45345;BME280;31078;48.304;11.896;2022-07-23T11:02:44;96448.47;;;26.41;58.18
45345;BME280;31078;48.304;11.896;2022-07-23T11:05:13;96447.31;;;26.42;54.58
45345;BME280;31078;48.304;11.896;2022-07-23T11:08:11;96446.72;;;26.23;56.44
45345;BME280;31078;48.304;11.896;2022-07-23T11:10:42;96438.19;;;26.34;55.33
45345;BME280;31078;48.304;11.896;2022-07-23T11:13:30;96438.47;;;26.47;55.37
45345;BME280;31078;48.304;11.896;2022-07-23T11:16:17;96441.13;;;26.23;56.47
45345;BME280;31078;48.304;11.896;2022-07-23T11:19:04;96439.88;;;25.97;56.99
45345;BME280;31078;48.304;11.896;2022-07-23T11:21:48;96438.66;;;25.98;57.15
45345;BME280;31078;48.304;11.896;2022-07-23T11:24:17;96442.16;;;26.06;56.19
45345;BME280;31078;48.304;11.896;2022-07-23T11:26:55;96435.00;;;26.05;57.63
45345;BME280;31078;48.304;11.896;2022-07-23T11:29:48;96433.78;;;26.37;56.02
45345;BME280;31078;48.304;11.896;2022-07-23T11:32:32;96416.59;;;26.42;56.10
45345;BME280;31078;48.304;11.896;2022-07-23T11:35:00;96422.97;;;26.69;53.43
45345;BME280;31078;48.304;11.896;2022-07-23T11:37:32;96424.34;;;26.85;53.03
45345;BME280;31078;48.304;11.896;2022-07-23T11:39:59;96415.91;;;26.61;52.23
45345;BME280;31078;48.304;11.896;2022-07-23T11:42:26;96414.59;;;26.69;52.37
45345;BME280;31078;48.304;11.896;2022-07-23T11:44:54;96420.81;;;26.80;50.44
45345;BME280;31078;48.304;11.896;2022-07-23T11:47:23;96420.69;;;26.88;51.48
45345;BME280;31078;48.304;11.896;2022-07-23T11:49:54;96419.22;;;27.03;49.73
45345;BME280;31078;48.304;11.896;2022-07-23T11:52:22;96417.38;;;26.69;51.11
45345;BME280;31078;48.304;11.896;2022-07-23T11:54:50;96416.75;;;26.58;49.64
45345;BME280;31078;48.304;11.896;2022-07-23T11:57:17;96402.97;;;26.47;50.69
45345;BME280;31078;48.304;11.896;2022-07-23T11:59:45;96395.84;;;26.12;49.26
45345;BME280;31078;48.304;11.896;2022-07-23T12:02:14;96398.31;;;26.07;51.40
45345;BME280;31078;48.304;11.896;2022-07-23T12:04:41;96404.03;;;25.96;50.71
45345;BME280;31078;48.304;11.896;2022-07-23T12:07:26;96402.09;;;26.20;49.63
45345;BME280;31078;48.304;11.896;2022-07-23T12:09:54;96396.47;;;26.23;50.39
45345;BME280;31078;48.304;11.896;2022-07-23T12:12:21;96402.69;;;26.35;51.20
45345;BME280;31078;48.304;11.896;2022-07-23T12:14:50;96398.66;;;26.39;51.24
45345;BME280;31078;48.304;11.896;2022-07-23T12:17:19;96397.59;;;26.29;50.29
45345;BME280;31078;48.304;11.896;2022-07-23T12:19:46;96398.06;;;26.24;49.68
45345;BME280;31078;48.304;11.896;2022-07-23T12:22:13;96399.16;;;26.31;49.59
45345;BME280;31078;48.304;11.896;2022-07-23T12:24:54;96400.00;;;25.97;50.37
45345;BME280;31078;48.304;11.896;2022-07-23T12:27:21;96401.25;;;25.92;51.27
45345;BME280;31078;48.304;11.896;2022-07-23T12:29:49;96402.38;;;25.98;52.49
45345;BME280;31078;48.304;11.896;2022-07-23T12:32:19;96400.44;;;26.26;50.71
45345;BME280;31078;48.304;11.896;2022-07-23T12:34:48;96396.81;;;26.56;49.52
45345;BME280;31078;48.304;11.896;2022-07-23T12:37:29;96395.84;;;26.70;51.14
45345;BME280;31078;48.304;11.896;2022-07-23T12:39:56;96399.19;;;26.85;47.80
45345;BME280;31078;48.304;11.896;2022-07-23T12:42:22;96399.38;;;26.47;47.42
45345;BME280;31078;48.304;11.896;2022-07-23T12:45:09;96394.94;;;26.19;46.88
45345;BME280;31078;48.304;11.896;2022-07-23T12:48:01;96399.63;;;26.25;49.00
45345;BME280;31078;48.304;11.896;2022-07-23T12:50:37;96404.84;;;26.23;48.75
45345;BME280;31078;48.304;11.896;2022-07-23T12:53:06;96407.44;;;26.38;47.80
45345;BME280;31078;48.304;11.896;2022-07-23T12:55:33;96405.59;;;26.27;49.85
45345;BME280;31078;48.304;11.896;2022-07-23T12:58:04;96404.84;;;25.93;50.77
45345;BME280;31078;48.304;11.896;2022-07-23T13:00:31;96408.06;;;25.91;48.77
45345;BME280;31078;48.304;11.896;2022-07-23T13:02:57;96401.84;;;25.73;49.46
45345;BME280;31078;48.304;11.896;2022-07-23T13:05:25;96406.66;;;25.72;49.73
45345;BME280;31078;48.304;11.896;2022-07-23T13:07:52;96402.22;;;25.41;50.16
45345;BME280;31078;48.304;11.896;2022-07-23T13:10:18;96411.97;;;25.22;50.48
45345;BME280;31078;48.304;11.896;2022-07-23T13:12:45;96400.34;;;24.82;50.95
45345;BME280;31078;48.304;11.896;2022-07-23T13:15:11;96403.09;;;24.86;51.66
45345;BME280;31078;48.304;11.896;2022-07-23T13:17:38;96400.34;;;24.82;51.23
45345;BME280;31078;48.304;11.896;2022-07-23T13:20:06;96405.44;;;24.91;51.91
45345;BME280;31078;48.304;11.896;2022-07-23T13:22:34;96405.84;;;24.89;52.77
45345;BME280;31078;48.304;11.896;2022-07-23T13:25:01;96400.69;;;24.88;52.99
45345;BME280;31078;48.304;11.896;2022-07-23T13:27:27;96401.88;;;24.87;52.47
45345;BME280;31078;48.304;11.896;2022-07-23T13:29:54;96394.00;;;24.78;52.45
45345;BME280;31078;48.304;11.896;2022-07-23T13:32:20;96411.09;;;24.80;52.04
45345;BME280;31078;48.304;11.896;2022-07-23T13:34:47;96415.31;;;24.99;51.63
45345;BME280;31078;48.304;11.896;2022-07-23T13:37:13;96412.25;;;24.86;52.48
45345;BME280;31078;48.304;11.896;2022-07-23T13:39:41;96406.00;;;24.71;52.86
45345;BME280;31078;48.304;11.896;2022-07-23T13:42:08;96412.44;;;24.61;53.41
45345;BME280;31078;48.304;11.896;2022-07-23T13:44:34;96405.28;;;24.60;54.10
45345;BME280;31078;48.304;11.896;2022-07-23T13:47:01;96409.28;;;24.59;53.25
45345;BME280;31078;48.304;11.896;2022-07-23T13:49:27;96416.78;;;24.62;53.31
45345;BME280;31078;48.304;11.896;2022-07-23T13:51:54;96412.44;;;24.61;53.33
45345;BME280;31078;48.304;11.896;2022-07-23T13:54:22;96408.50;;;24.52;53.93
45345;BME280;31078;48.304;11.896;2022-07-23T13:56:50;96404.56;;;24.49;53.85
45345;BME280;31078;48.304;11.896;2022-07-23T13:59:17;96394.22;;;24.50;54.30
45345;BME280;31078;48.304;11.896;2022-07-23T14:01:43;96402.88;;;24.59;53.85
45345;BME280;31078;48.304;11.896;2022-07-23T14:04:10;96398.25;;;24.38;54.06
45345;BME280;31078;48.304;11.896;2022-07-23T14:06:36;96401.03;;;24.41;54.57
45345;BME280;31078;48.304;11.896;2022-07-23T14:09:03;96401.34;;;24.54;55.16
45345;BME280;31078;48.304;11.896;2022-07-23T14:11:29;96400.59;;;24.46;55.71
45345;BME280;31078;48.304;11.896;2022-07-23T14:13:58;96402.88;;;24.62;54.97
45345;BME280;31078;48.304;11.896;2022-07-23T14:16:26;96409.22;;;24.66;54.37
45345;BME280;31078;48.304;11.896;2022-07-23T14:18:53;96402.69;;;24.84;55.04
45345;BME280;31078;48.304;11.896;2022-07-23T14:21:19;96401.78;;;25.01;55.25
45345;BME280;31078;48.304;11.896;2022-07-23T14:23:46;96402.25;;;24.89;53.67
45345;BME280;31078;48.304;11.896;2022-07-23T14:26:12;96405.75;;;25.00;55.17
45345;BME280;31078;48.304;11.896;2022-07-23T14:28:39;96400.53;;;25.06;54.82
45345;BME280;31078;48.304;11.896;2022-07-23T14:31:07;96401.44;;;24.95;54.75
45345;BME280;31078;48.304;11.896;2022-07-23T14:33:33;96396.41;;;24.80;54.32
45345;BME280;31078;48.304;11.896;2022-07-23T14:36:00;96394.50;;;24.62;54.72
45345;BME280;31078;48.304;11.896;2022-07-23T14:38:26;96385.53;;;24.40;55.06
45345;BME280;31078;48.304;11.896;2022-07-23T14:40:55;96387.91;;;24.42;56.44
45345;BME280;31078;48.304;11.896;2022-07-23T14:43:22;96383.91;;;24.43;56.21
45345;BME280;31078;48.304;11.896;2022-07-23T14:45:48;96386.34;;;24.34;56.02
45345;BME280;31078;48.304;11.896;2022-07-23T14:48:16;96376.00;;;24.34;55.88
45345;BME280;31078;48.304;11.896;2022-07-23T14:50:43;96374.50;;;24.23;56.26
45345;BME280;31078;48.304;11.896;2022-07-23T14:53:09;96371.34;;;24.13;56.82
45345;BME280;31078;48.304;11.896;2022-07-23T14:55:36;96370.56;;;24.13;57.59
45345;BME280;31078;48.304;11.896;2022-07-23T14:58:02;96375.28;;;24.19;58.10
45345;BME280;31078;48.304;11.896;2022-07-23T15:00:29;96368.03;;;24.40;58.13
45345;BME280;31078;48.304;11.896;2022-07-23T15:02:55;96365.72;;;24.24;57.35
45345;BME280;31078;48.304;11.896;2022-07-23T15:05:23;96363.38;;;24.15;57.63
45345;BME280;31078;48.304;11.896;2022-07-23T15:07:50;96376.00;;;24.34;58.50
45345;BME280;31078;48.304;11.896;2022-07-23T15:10:16;96384.75;;;24.40;57.61
45345;BME280;31078;48.304;11.896;2022-07-23T15:12:43;96381.56;;;24.38;57.40
45345;BME280;31078;48.304;11.896;2022-07-23T15:15:09;96386.31;;;24.41;57.65
45345;BME280;31078;48.304;11.896;2022-07-23T15:17:36;96387.91;;;24.42;58.46
45345;BME280;31078;48.304;11.896;2022-07-23T15:20:03;96380.69;;;24.48;57.70
45345;BME280;31078;48.304;11.896;2022-07-23T15:22:31;96383.81;;;24.57;58.25
45345;BME280;31078;48.304;11.896;2022-07-23T15:24:57;96382.97;;;24.64;60.04
45345;BME280;31078;48.304;11.896;2022-07-23T15:27:24;96374.56;;;24.71;58.84
45345;BME280;31078;48.304;11.896;2022-07-23T15:29:51;96383.66;;;24.79;58.88
45345;BME280;31078;48.304;11.896;2022-07-23T15:32:17;96390.81;;;24.80;57.50
45345;BME280;31078;48.304;11.896;2022-07-23T15:34:44;96391.69;;;24.69;57.85
45345;BME280;31078;48.304;11.896;2022-07-23T15:37:10;96396.88;;;24.64;57.68
45345;BME280;31078;48.304;11.896;2022-07-23T15:39:38;96399.53;;;24.82;58.15
45345;BME280;31078;48.304;11.896;2022-07-23T15:42:05;96401.97;;;24.76;57.79
45345;BME280;31078;48.304;11.896;2022-07-23T15:44:31;96388.31;;;24.92;57.76
45345;BME280;31078;48.304;11.896;2022-07-23T15:46:58;96388.91;;;25.18;58.72
45345;BME280;31078;48.304;11.896;2022-07-23T15:49:24;96394.47;;;25.21;57.62
45345;BME280;31078;48.304;11.896;2022-07-23T15:51:51;96381.78;;;25.13;57.27
45345;BME280;31078;48.304;11.896;2022-07-23T15:54:17;96376.81;;;25.32;56.74
45345;BME280;31078;48.304;11.896;2022-07-23T15:56:45;96381.50;;;25.42;56.24
45345;BME280;31078;48.304;11.896;2022-07-23T15:59:11;96378.53;;;25.22;58.78
45345;BME280;31078;48.304;11.896;2022-07-23T16:01:38;96375.84;;;25.11;58.14
45345;BME280;31078;48.304;11.896;2022-07-23T16:04:05;96372.34;;;25.41;57.17
45345;BME280;31078;48.304;11.896;2022-07-23T16:06:32;96374.63;;;25.50;58.76
45345;BME280;31078;48.304;11.896;2022-07-23T16:08:59;96375.09;;;25.45;57.38
45345;BME280;31078;48.304;11.896;2022-07-23T16:11:27;96381.34;;;25.56;57.64
45345;BME280;31078;48.304;11.896;2022-07-23T16:13:55;96381.50;;;25.42;58.50
45345;BME280;31078;48.304;11.896;2022-07-23T16:16:22;96389.56;;;25.33;58.72
45345;BME280;31078;48.304;11.896;2022-07-23T16:18:50;96379.84;;;25.48;58.56
45345;BME280;31078;48.304;11.896;2022-07-23T16:21:16;96392.56;;;25.49;59.33
45345;BME280;31078;48.304;11.896;2022-07-23T16:23:43;96390.25;;;25.44;59.06
45345;BME280;31078;48.304;11.896;2022-07-23T16:26:10;96392.81;;;25.24;59.29
45345;BME280;31078;48.304;11.896;2022-07-23T16:28:37;96394.59;;;25.07;59.12
45345;BME280;31078;48.304;11.896;2022-07-23T16:31:06;96397.72;;;25.06;59.00
45345;BME280;31078;48.304;11.896;2022-07-23T16:33:33;96397.09;;;24.87;59.54
45345;BME280;31078;48.304;11.896;2022-07-23T16:35:59;96397.97;;;24.81;59.62
45345;BME280;31078;48.304;11.896;2022-07-23T16:38:26;96398.84;;;24.70;59.50
45345;BME280;31078;48.304;11.896;2022-07-23T16:40:52;96402.78;;;24.77;59.46
45345;BME280;31078;48.304;11.896;2022-07-23T16:43:21;96396.78;;;24.78;59.91
45345;BME280;31078;48.304;11.896;2022-07-23T16:45:47;96395.56;;;24.83;60.13
45345;BME280;31078;48.304;11.896;2022-07-23T16:48:15;96403.06;;;24.89;61.03